Knysna, South Africa

11:49 PM SAST on October 21, 2014 (GMT +0200)
Knysna ZA | Change Station
CLOSE
Current Station
Personal Weather Station
Location: Knysna, WESTERN CAPE
Elevation: 161 ft
Nearby Weather Stations

Elev 161 ft 34.03 °S, 23.04 °E | Updated 49 minutes ago

Partly Cloudy
Partly Cloudy
60.6 °F
Feels Like 60.6 °F
N
1.0
Wind Variable Wind from NNE
Gusts 3.0 mph

Today
High -- | Low -- °F
--% Chance of Precip.
Yesterday
High -- | Low -- °F
Precip. -- in
5:39 AM 6:46 PM
Waning Crescent, 4% visible
Pressure 30.06 in
Visibility 6.2 miles
Clouds Few 100 ft
Dew Point 58 °F
Humidity 92%
Rainfall 0.00 in
Snow Depth Not available.
UV 0 out of 12
Pollen Not available.
Air Quality Not available.
Flu Activity Not available.
METAR FAGG 212100Z AUTO 32004KT 9999 FEW001/// 14/14 Q1018

More Conditions Fewer Conditions

Pressure 30.06 in
Visibility 6.2 miles
Clouds Few 100 ft
Dew Point 58 °F
Humidity 92%
Rainfall 0.00 in
Snow Depth Not available.
UV 0 out of 12
Pollen Not available.
Air Quality Not available.
Flu Activity Not available.
METAR FAGG 212100Z AUTO 32004KT 9999 FEW001/// 14/14 Q1018

More Conditions Fewer Conditions

10-Day Weather Forecast

Almanac

Astronomy

Oct. 21, 2014 Rise Set
Actual Time 5:39 AM SAST 6:46 PM SAST
Civil Twilight 5:13 AM SAST 7:12 PM SAST
Nautical Twilight 4:42 AM SAST 7:42 PM SAST
Astronomical Twilight 4:10 AM SAST 8:14 PM SAST
Moon 4:10 AM SAST 4:37 PM SAST
Length of Visible Light 13h 58m
Length of Day
13h 07m
Tomorrow will be 2m 2s longer.
Waning Crescent, 4% of the Moon is Illuminated
Today
Waning Crescent
Oct 23
New
Oct 30
First Quarter
Nov 6
Full
Nov 14
Last Quarter

Today's Extremes

Country Highs Country Lows

Community

WunderPhotos

Upload Photos

1,763,785 photos uploaded!

Nearby

Snow Depth

Not available.

Earthquake Activity

City Distance Mag. Time & Date
No recent earthquake activity has been reported nearby.
Minimum magnitude displayed is 2.5.

Coastal Water Temperatures

Place Temperature
No Stations Reporting

Nearby Weather Stations